createdAt,value
2022-08-30T00:02:14.957Z,21.00
2022-08-30T00:04:43.092Z,21.00
2022-08-30T00:07:12.360Z,21.00
2022-08-30T00:09:40.509Z,21.00
2022-08-30T00:12:09.086Z,21.00
2022-08-30T00:14:37.843Z,21.00
2022-08-30T00:17:06.223Z,21.00
2022-08-30T00:19:35.667Z,21.00
2022-08-30T00:22:03.823Z,21.00
2022-08-30T00:24:32.834Z,21.00
2022-08-30T00:27:00.982Z,21.00
2022-08-30T00:29:29.140Z,21.00
2022-08-30T00:31:57.556Z,21.00
2022-08-30T00:34:25.687Z,21.00
2022-08-30T00:36:55.186Z,21.00
2022-08-30T00:39:23.343Z,21.00
2022-08-30T00:41:51.872Z,21.00
2022-08-30T00:44:20.098Z,21.00
2022-08-30T00:46:48.228Z,21.00
2022-08-30T00:49:16.528Z,21.00
2022-08-30T00:51:45.559Z,20.90
2022-08-30T00:54:15.827Z,20.90
2022-08-30T00:56:44.168Z,20.90
2022-08-30T00:59:12.463Z,20.90
2022-08-30T01:01:41.213Z,20.90
2022-08-30T01:04:11.053Z,20.90
2022-08-30T01:06:40.103Z,20.90
2022-08-30T01:09:09.420Z,20.90
2022-08-30T01:11:41.260Z,20.90
2022-08-30T01:14:11.146Z,20.90
2022-08-30T01:16:40.928Z,20.90
2022-08-30T01:19:18.228Z,20.90
2022-08-30T01:21:50.797Z,20.90
2022-08-30T01:24:20.764Z,20.90
2022-08-30T01:26:48.985Z,20.90
2022-08-30T01:29:21.920Z,20.80
2022-08-30T01:31:50.245Z,20.80
2022-08-30T01:34:19.463Z,20.80
2022-08-30T01:36:47.949Z,20.80
2022-08-30T01:39:18.746Z,20.80
2022-08-30T01:41:48.456Z,20.80
2022-08-30T01:44:17.716Z,20.70
2022-08-30T01:46:48.504Z,20.70
2022-08-30T01:49:27.351Z,20.70
2022-08-30T01:52:00.498Z,20.70
2022-08-30T01:54:36.941Z,20.60
2022-08-30T01:57:10.132Z,20.60
2022-08-30T01:59:38.883Z,20.60
2022-08-30T02:02:07.776Z,20.60
2022-08-30T02:04:36.857Z,20.60
2022-08-30T02:07:05.880Z,20.50
2022-08-30T02:09:34.038Z,20.50
2022-08-30T02:12:02.247Z,20.50
2022-08-30T02:14:31.735Z,20.40
2022-08-30T02:16:59.944Z,20.40
2022-08-30T02:19:28.103Z,20.40
2022-08-30T02:21:56.680Z,20.30
2022-08-30T02:24:25.047Z,20.30
2022-08-30T02:26:53.777Z,20.20
2022-08-30T02:29:22.620Z,20.30
2022-08-30T02:31:52.550Z,20.20
2022-08-30T02:34:21.177Z,20.20
2022-08-30T02:36:49.539Z,20.20
2022-08-30T02:39:17.847Z,20.20
2022-08-30T02:41:46.096Z,20.20
2022-08-30T02:44:14.300Z,20.20
2022-08-30T02:46:42.757Z,20.20
2022-08-30T02:49:32.531Z,20.10
2022-08-30T02:52:00.736Z,20.10
2022-08-30T02:54:29.286Z,20.10
2022-08-30T02:56:57.397Z,20.10
2022-08-30T02:59:26.870Z,20.10
2022-08-30T03:01:56.072Z,20.10
2022-08-30T03:04:26.722Z,20.00
2022-08-30T03:06:55.289Z,20.00
2022-08-30T03:09:23.681Z,20.00
2022-08-30T03:11:51.860Z,20.00
2022-08-30T03:14:20.194Z,19.90
2022-08-30T03:16:48.443Z,19.90
2022-08-30T03:19:16.776Z,19.90
2022-08-30T03:21:46.379Z,19.90
2022-08-30T03:24:14.681Z,19.90
2022-08-30T03:26:46.167Z,19.90
2022-08-30T03:29:14.621Z,20.00
2022-08-30T03:31:53.294Z,20.00
2022-08-30T03:34:22.635Z,19.90
2022-08-30T03:36:53.440Z,19.90
2022-08-30T03:39:23.029Z,20.00
2022-08-30T03:41:51.905Z,20.00
2022-08-30T03:44:20.330Z,20.00
2022-08-30T03:46:49.716Z,19.90
2022-08-30T03:49:18.719Z,19.90
2022-08-30T03:51:47.466Z,20.00
2022-08-30T03:54:17.452Z,20.00
2022-08-30T03:56:45.767Z,20.00
2022-08-30T03:59:13.935Z,20.00
2022-08-30T04:01:42.857Z,20.00
2022-08-30T04:04:11.508Z,20.00
2022-08-30T04:06:39.755Z,20.00
2022-08-30T04:09:08.093Z,20.00
2022-08-30T04:11:38.039Z,20.00
2022-08-30T04:14:06.250Z,20.00
2022-08-30T04:16:34.521Z,20.00
2022-08-30T04:19:03.336Z,20.00
2022-08-30T04:21:31.506Z,20.00
2022-08-30T04:23:59.787Z,20.00
2022-08-30T04:26:29.417Z,20.10
2022-08-30T04:28:59.346Z,20.00
2022-08-30T04:31:28.014Z,20.10
2022-08-30T04:33:56.146Z,20.10
2022-08-30T04:36:24.665Z,20.10
2022-08-30T04:38:52.819Z,20.10
2022-08-30T04:41:24.600Z,20.10
2022-08-30T04:43:52.759Z,20.10
2022-08-30T04:46:22.538Z,20.10
2022-08-30T04:48:51.008Z,20.10
2022-08-30T04:51:19.665Z,20.10
2022-08-30T04:53:47.863Z,20.10
2022-08-30T04:56:18.203Z,20.20
2022-08-30T04:58:46.887Z,20.20
2022-08-30T05:01:18.891Z,20.20
2022-08-30T05:03:50.048Z,20.20
2022-08-30T05:06:18.974Z,20.20
2022-08-30T05:08:47.311Z,20.20
2022-08-30T05:11:16.514Z,20.20
2022-08-30T05:13:44.895Z,20.20
2022-08-30T05:16:17.751Z,20.20
2022-08-30T05:18:46.729Z,20.20
2022-08-30T05:21:19.020Z,20.20
2022-08-30T05:23:47.624Z,20.20
2022-08-30T05:26:18.511Z,20.20
2022-08-30T05:28:47.736Z,20.20
2022-08-30T05:31:20.604Z,20.20
2022-08-30T05:33:49.879Z,20.20
2022-08-30T05:36:21.237Z,20.20
2022-08-30T05:38:50.262Z,20.20
2022-08-30T05:41:20.428Z,20.20
2022-08-30T05:43:49.255Z,20.20
2022-08-30T05:46:19.587Z,20.20
2022-08-30T05:48:48.965Z,20.20
2022-08-30T05:51:20.613Z,20.20
2022-08-30T05:53:49.808Z,20.20
2022-08-30T05:56:19.730Z,20.20
2022-08-30T05:58:48.793Z,20.30
2022-08-30T06:01:22.485Z,20.30
2022-08-30T06:03:50.904Z,20.30
2022-08-30T06:06:20.407Z,20.30
2022-08-30T06:08:49.277Z,20.40
2022-08-30T06:11:20.282Z,20.40
2022-08-30T06:13:49.370Z,20.40
2022-08-30T06:16:20.244Z,20.50
2022-08-30T06:18:48.977Z,20.50
2022-08-30T06:21:21.283Z,20.50
2022-08-30T06:23:51.072Z,20.60
2022-08-30T06:26:19.242Z,20.60
2022-08-30T06:28:47.469Z,20.70
2022-08-30T06:31:18.354Z,20.70
2022-08-30T06:33:46.910Z,20.80
2022-08-30T06:36:19.189Z,20.90
2022-08-30T06:38:47.956Z,21.00
2022-08-30T06:41:20.799Z,21.10
2022-08-30T06:43:49.424Z,21.20
2022-08-30T06:46:19.767Z,21.20
2022-08-30T06:48:48.580Z,21.30
2022-08-30T06:51:20.832Z,21.40
2022-08-30T06:53:50.032Z,21.40
2022-08-30T06:56:22.134Z,21.50
2022-08-30T06:58:51.411Z,21.50
2022-08-30T07:01:23.067Z,21.60
2022-08-30T07:03:52.111Z,21.60
2022-08-30T07:06:20.907Z,21.60
2022-08-30T07:08:56.125Z,21.70
2022-08-30T07:11:40.504Z,21.70
2022-08-30T07:14:09.090Z,21.70
2022-08-30T07:16:37.688Z,21.70
2022-08-30T07:19:06.814Z,21.80
2022-08-30T07:21:37.061Z,21.80
2022-08-30T07:24:08.861Z,21.90
2022-08-30T07:26:41.254Z,21.90
2022-08-30T07:29:09.946Z,21.90
2022-08-30T07:31:38.638Z,22.00
2022-08-30T07:34:07.902Z,22.00
2022-08-30T07:36:36.945Z,22.10
2022-08-30T07:39:06.586Z,22.20
2022-08-30T07:41:38.683Z,22.30
2022-08-30T07:44:09.610Z,22.40
2022-08-30T07:46:39.959Z,22.50
2022-08-30T07:49:11.156Z,22.60
2022-08-30T07:51:40.734Z,22.60
2022-08-30T07:54:09.532Z,22.70
2022-08-30T07:56:37.739Z,22.70
2022-08-30T07:59:06.329Z,22.80
2022-08-30T08:01:36.170Z,22.80
2022-08-30T08:04:04.742Z,22.80
2022-08-30T08:06:34.675Z,22.90
2022-08-30T08:09:03.410Z,23.00
2022-08-30T08:11:33.851Z,23.10
2022-08-30T08:14:02.740Z,23.10
2022-08-30T08:16:32.588Z,23.20
2022-08-30T08:19:02.137Z,23.20
2022-08-30T08:21:30.783Z,23.30
2022-08-30T08:23:58.918Z,23.40
2022-08-30T08:26:27.071Z,23.40
2022-08-30T08:28:55.725Z,23.50
2022-08-30T08:31:27.448Z,23.50
2022-08-30T08:34:05.621Z,23.60
2022-08-30T08:36:34.487Z,23.70
2022-08-30T08:39:03.487Z,23.70
2022-08-30T08:41:47.441Z,23.80
2022-08-30T08:44:29.274Z,23.90
2022-08-30T08:47:09.510Z,23.90
2022-08-30T08:49:41.292Z,24.00
2022-08-30T08:52:33.967Z,24.10
2022-08-30T08:55:08.362Z,24.10
2022-08-30T08:57:37.533Z,24.10
2022-08-30T09:00:07.511Z,24.20
2022-08-30T09:02:42.379Z,24.30
2022-08-30T09:05:15.557Z,24.30
2022-08-30T09:07:49.611Z,24.40
2022-08-30T09:10:23.015Z,24.50
2022-08-30T09:13:00.170Z,24.50
2022-08-30T09:15:33.139Z,24.60
2022-08-30T09:18:04.996Z,24.70
2022-08-30T09:20:36.692Z,24.80
2022-08-30T09:23:23.666Z,24.80
2022-08-30T09:25:54.188Z,24.90
2022-08-30T09:28:25.485Z,25.00
2022-08-30T09:31:03.283Z,25.10
2022-08-30T09:33:31.880Z,25.20
2022-08-30T09:36:14.745Z,25.30
2022-08-30T09:38:42.941Z,25.40
2022-08-30T09:41:37.714Z,25.50
2022-08-30T09:44:10.079Z,25.50
2022-08-30T09:46:46.329Z,25.60
2022-08-30T09:49:34.037Z,25.70
2022-08-30T09:52:21.407Z,25.80
2022-08-30T09:55:07.100Z,25.80
2022-08-30T09:57:44.711Z,25.90
2022-08-30T10:00:18.902Z,25.90
2022-08-30T10:03:01.360Z,26.00
2022-08-30T10:05:37.340Z,26.00
2022-08-30T10:08:25.241Z,26.00
2022-08-30T10:10:59.437Z,26.10
2022-08-30T10:13:51.605Z,26.20
2022-08-30T10:16:35.753Z,26.20
2022-08-30T10:19:19.393Z,26.30
2022-08-30T10:21:54.968Z,26.40
2022-08-30T10:24:33.223Z,26.50
2022-08-30T10:27:07.054Z,26.50
2022-08-30T10:29:42.494Z,26.60
2022-08-30T10:32:20.157Z,26.60
2022-08-30T10:34:55.616Z,26.70
2022-08-30T10:37:28.240Z,26.80
2022-08-30T10:40:23.224Z,26.90
2022-08-30T10:42:55.238Z,26.90
2022-08-30T10:45:24.593Z,27.00
2022-08-30T10:48:00.128Z,27.10
2022-08-30T10:50:38.447Z,27.10
2022-08-30T10:53:15.940Z,27.20
2022-08-30T10:55:50.388Z,27.20
2022-08-30T10:58:19.785Z,27.20
2022-08-30T11:01:01.626Z,27.20
2022-08-30T11:04:01.372Z,27.20
2022-08-30T11:06:36.340Z,27.30
2022-08-30T11:09:25.346Z,27.30
2022-08-30T11:12:25.296Z,27.30
2022-08-30T11:14:55.609Z,27.40
2022-08-30T11:17:28.282Z,27.40
2022-08-30T11:19:59.725Z,27.40
2022-08-30T11:22:32.471Z,27.50
2022-08-30T11:25:10.115Z,27.50
2022-08-30T11:27:51.939Z,27.60
2022-08-30T11:30:38.989Z,27.60
2022-08-30T11:33:32.200Z,27.70
2022-08-30T11:36:00.512Z,27.70
2022-08-30T11:39:03.126Z,27.80
2022-08-30T11:41:39.530Z,27.80
2022-08-30T11:44:29.890Z,27.80
2022-08-30T11:46:59.994Z,27.90
2022-08-30T11:50:03.345Z,27.90
2022-08-30T11:52:49.005Z,27.90
2022-08-30T11:55:37.439Z,28.00
2022-08-30T11:58:17.661Z,28.00
2022-08-30T12:00:52.993Z,28.00
2022-08-30T12:03:33.649Z,28.10
2022-08-30T12:06:04.312Z,28.10
2022-08-30T12:09:02.670Z,28.10
2022-08-30T12:12:05.748Z,28.10
2022-08-30T12:14:49.097Z,28.10
2022-08-30T12:17:44.588Z,28.20
2022-08-30T12:20:28.499Z,28.20
2022-08-30T12:22:58.630Z,28.20
2022-08-30T12:25:30.687Z,28.20
2022-08-30T12:28:14.618Z,28.30
2022-08-30T12:30:43.733Z,28.30
2022-08-30T12:33:29.084Z,28.30
2022-08-30T12:35:59.722Z,28.40
2022-08-30T12:38:29.891Z,28.40
2022-08-30T12:41:01.903Z,28.40
2022-08-30T12:43:38.748Z,28.40
2022-08-30T12:46:15.378Z,28.40
2022-08-30T12:48:46.472Z,28.40
2022-08-30T12:51:30.380Z,28.40
2022-08-30T12:54:10.120Z,28.50
2022-08-30T12:57:03.668Z,28.50
2022-08-30T12:59:56.803Z,28.50
2022-08-30T13:02:30.021Z,28.60
2022-08-30T13:04:59.943Z,28.70
2022-08-30T13:07:32.630Z,28.70
2022-08-30T13:10:10.433Z,28.70
2022-08-30T13:12:40.438Z,28.80
2022-08-30T13:15:21.378Z,28.80
2022-08-30T13:17:50.206Z,28.80
2022-08-30T13:20:27.859Z,28.80
2022-08-30T13:23:05.452Z,28.80
2022-08-30T13:25:34.303Z,28.80
2022-08-30T13:28:03.454Z,28.70
2022-08-30T13:30:32.274Z,28.70
2022-08-30T13:33:01.528Z,28.60
2022-08-30T13:35:33.014Z,28.60
2022-08-30T13:38:04.231Z,28.60
2022-08-30T13:40:32.655Z,28.50
2022-08-30T13:43:02.507Z,28.50
2022-08-30T13:45:46.914Z,28.50
2022-08-30T13:48:17.360Z,28.50
2022-08-30T13:50:55.478Z,28.50
2022-08-30T13:56:14.209Z,28.50
2022-08-30T13:58:42.691Z,28.60
2022-08-30T14:01:11.055Z,28.60
2022-08-30T14:04:13.152Z,28.60
2022-08-30T14:06:37.125Z,28.70
2022-08-30T14:09:07.432Z,28.70
2022-08-30T14:11:36.392Z,28.80
2022-08-30T14:14:41.481Z,28.90
2022-08-30T14:16:55.721Z,28.90
2022-08-30T14:19:24.012Z,28.90
2022-08-30T14:30:37.035Z,29.00
2022-08-30T14:33:09.642Z,29.00
2022-08-30T14:39:30.202Z,28.90
2022-08-30T14:41:58.415Z,28.90
2022-08-30T14:44:54.722Z,28.90
2022-08-30T14:47:23.613Z,28.80
2022-08-30T14:49:58.927Z,28.80
2022-08-30T14:52:28.110Z,28.70
2022-08-30T14:54:59.393Z,28.70
2022-08-30T14:57:29.785Z,28.70
2022-08-30T14:59:58.175Z,28.70
2022-08-30T15:02:27.147Z,28.60
2022-08-30T15:04:56.932Z,28.60
2022-08-30T15:07:25.205Z,28.60
2022-08-30T15:09:53.499Z,28.60
2022-08-30T15:12:21.848Z,28.60
2022-08-30T15:14:50.758Z,28.60
2022-08-30T15:17:19.360Z,28.60
2022-08-30T15:19:48.200Z,28.60
2022-08-30T15:22:17.827Z,28.60
2022-08-30T15:24:48.845Z,28.60
2022-08-30T15:27:19.215Z,28.60
2022-08-30T15:29:47.331Z,28.60
2022-08-30T15:32:15.519Z,28.60
2022-08-30T15:34:43.801Z,28.50
2022-08-30T15:37:24.702Z,28.50
2022-08-30T15:39:53.873Z,28.50
2022-08-30T15:42:22.014Z,28.50
2022-08-30T15:44:52.988Z,28.50
2022-08-30T15:47:22.495Z,28.40
2022-08-30T15:49:56.158Z,28.40
2022-08-30T15:52:26.047Z,28.40
2022-08-30T15:54:55.156Z,28.40
2022-08-30T15:57:24.590Z,28.30
2022-08-30T15:59:54.717Z,28.30
2022-08-30T16:02:27.727Z,28.30
2022-08-30T16:04:56.103Z,28.30
2022-08-30T16:07:25.822Z,28.30
2022-08-30T16:09:54.065Z,28.30
2022-08-30T16:12:23.631Z,28.20
2022-08-30T16:14:52.166Z,28.20
2022-08-30T16:17:20.430Z,28.20
2022-08-30T16:19:48.723Z,28.20
2022-08-30T16:22:22.139Z,28.20
2022-08-30T16:24:51.980Z,28.20
2022-08-30T16:27:21.151Z,28.20
2022-08-30T16:29:49.953Z,28.20
2022-08-30T16:32:19.024Z,28.20
2022-08-30T16:34:50.162Z,28.20
2022-08-30T16:37:18.632Z,28.20
2022-08-30T16:39:47.445Z,28.10
2022-08-30T16:42:20.715Z,28.10
2022-08-30T16:44:49.850Z,28.10
2022-08-30T16:47:18.345Z,28.10
2022-08-30T16:49:46.568Z,28.00
2022-08-30T16:52:14.733Z,28.00
2022-08-30T16:54:42.875Z,28.00
2022-08-30T16:57:12.295Z,28.00
2022-08-30T16:59:41.891Z,27.90
2022-08-30T17:02:10.192Z,27.90
2022-08-30T17:04:40.001Z,27.80
2022-08-30T17:07:08.083Z,27.80
2022-08-30T17:09:42.322Z,27.80
2022-08-30T17:12:10.475Z,27.70
2022-08-30T17:14:38.711Z,27.70
2022-08-30T17:17:08.414Z,27.60
2022-08-30T17:19:41.005Z,27.60
2022-08-30T17:22:09.731Z,27.50
2022-08-30T17:24:37.910Z,27.50
2022-08-30T17:27:06.908Z,27.50
2022-08-30T17:29:35.162Z,27.50
2022-08-30T17:32:04.568Z,27.40
2022-08-30T17:34:34.384Z,27.40
2022-08-30T17:37:02.812Z,27.30
2022-08-30T17:39:32.286Z,27.30
2022-08-30T17:44:48.753Z,27.20
2022-08-30T17:47:17.075Z,27.20
2022-08-30T17:49:48.847Z,27.10
2022-08-30T17:52:17.072Z,27.10
2022-08-30T17:54:45.124Z,27.10
2022-08-30T17:57:13.414Z,27.00
2022-08-30T17:59:41.918Z,27.00
2022-08-30T18:02:11.384Z,26.90
2022-08-30T18:04:39.801Z,26.90
2022-08-30T18:07:11.955Z,26.90
2022-08-30T18:09:40.656Z,26.80
2022-08-30T18:12:09.844Z,26.70
2022-08-30T18:14:38.572Z,26.70
2022-08-30T18:17:08.030Z,26.70
2022-08-30T18:19:45.902Z,26.60
2022-08-30T18:22:16.373Z,26.60
2022-08-30T18:24:44.622Z,26.50
2022-08-30T18:27:13.491Z,26.50
2022-08-30T18:29:41.779Z,26.40
2022-08-30T18:32:11.384Z,26.40
2022-08-30T18:34:40.397Z,26.30
2022-08-30T18:37:11.440Z,26.30
2022-08-30T18:39:42.695Z,26.30
2022-08-30T18:42:10.858Z,26.20
2022-08-30T18:44:39.927Z,26.10
2022-08-30T18:47:09.418Z,26.10
2022-08-30T18:49:38.060Z,26.00
2022-08-30T18:52:08.983Z,25.90
2022-08-30T18:54:39.659Z,25.90
2022-08-30T18:57:10.652Z,25.80
2022-08-30T18:59:39.007Z,25.80
2022-08-30T19:02:12.254Z,25.70
2022-08-30T19:04:42.905Z,25.70
2022-08-30T19:07:15.451Z,25.70
2022-08-30T19:09:43.748Z,25.60
2022-08-30T19:12:15.194Z,25.60
2022-08-30T19:14:44.470Z,25.60
2022-08-30T19:17:12.947Z,25.50
2022-08-30T19:19:46.348Z,25.40
2022-08-30T19:22:19.039Z,25.40
2022-08-30T19:24:47.833Z,25.40
2022-08-30T19:27:37.256Z,25.30
2022-08-30T19:30:08.799Z,25.30
2022-08-30T19:32:37.438Z,25.30
2022-08-30T19:35:06.429Z,25.20
2022-08-30T19:37:34.911Z,25.20
2022-08-30T19:40:04.575Z,25.10
2022-08-30T19:42:34.991Z,25.10
2022-08-30T19:45:07.971Z,25.00
2022-08-30T19:47:36.225Z,25.00
2022-08-30T19:50:05.535Z,25.00
2022-08-30T19:52:33.612Z,24.90
2022-08-30T19:55:04.832Z,24.90
2022-08-30T19:57:35.273Z,25.00
2022-08-30T20:00:05.343Z,25.00
2022-08-30T20:02:33.993Z,25.00
2022-08-30T20:05:04.471Z,25.10
2022-08-30T20:07:36.349Z,25.10
2022-08-30T20:10:08.839Z,25.10
2022-08-30T20:12:39.738Z,25.10
2022-08-30T20:15:16.367Z,25.10
2022-08-30T20:18:05.782Z,25.10
2022-08-30T20:20:36.533Z,25.20
2022-08-30T20:23:05.799Z,25.20
2022-08-30T20:24:25.948Z,27.30
2022-08-30T20:25:34.176Z,25.20
2022-08-30T20:28:05.575Z,25.10
2022-08-30T20:30:34.534Z,25.10
2022-08-30T20:33:06.874Z,25.10
2022-08-30T20:35:36.969Z,25.00
2022-08-30T20:38:06.562Z,24.90
2022-08-30T20:40:36.148Z,24.90
2022-08-30T20:43:06.696Z,24.80
2022-08-30T20:45:35.760Z,24.70
2022-08-30T20:48:05.225Z,24.70
2022-08-30T20:50:33.480Z,24.60
2022-08-30T20:53:01.867Z,24.50
2022-08-30T20:55:29.991Z,24.50
2022-08-30T20:57:58.376Z,24.50
2022-08-30T21:00:28.505Z,24.40
2022-08-30T21:02:57.884Z,24.30
2022-08-30T21:05:27.113Z,24.30
2022-08-30T21:07:55.296Z,24.30
2022-08-30T21:10:23.690Z,24.20
2022-08-30T21:12:52.439Z,24.20
2022-08-30T21:15:37.427Z,24.20
2022-08-30T21:18:07.925Z,24.10
2022-08-30T21:20:36.269Z,24.10
2022-08-30T21:23:04.385Z,24.10
2022-08-30T21:25:34.077Z,24.00
2022-08-30T21:28:02.409Z,24.00
2022-08-30T21:30:30.667Z,24.00
2022-08-30T21:33:00.112Z,24.00
2022-08-30T21:35:47.304Z,23.90
2022-08-30T21:38:15.675Z,23.90
2022-08-30T21:40:44.349Z,23.90
2022-08-30T21:43:12.986Z,23.90
2022-08-30T21:45:42.008Z,23.90
2022-08-30T21:48:11.142Z,23.80
2022-08-30T21:50:42.328Z,23.90
2022-08-30T21:53:10.719Z,23.80
2022-08-30T21:55:39.099Z,23.80
2022-08-30T21:58:07.681Z,23.70
2022-08-30T22:00:35.853Z,23.70
2022-08-30T22:03:04.067Z,23.70
2022-08-30T22:05:32.248Z,23.70
2022-08-30T22:08:01.716Z,23.70
2022-08-30T22:10:33.015Z,23.70
2022-08-30T22:13:01.489Z,23.60
2022-08-30T22:15:32.250Z,23.60
2022-08-30T22:18:00.784Z,23.60
2022-08-30T22:20:30.434Z,23.60
2022-08-30T22:22:58.855Z,23.60
2022-08-30T22:25:28.552Z,23.60
2022-08-30T22:27:56.664Z,23.50
2022-08-30T22:30:25.354Z,23.50
2022-08-30T22:32:55.649Z,23.50
2022-08-30T22:35:23.826Z,23.50
2022-08-30T22:37:53.219Z,23.50
2022-08-30T22:40:22.464Z,23.40
2022-08-30T22:42:52.279Z,23.40
2022-08-30T22:45:20.618Z,23.40
2022-08-30T22:47:49.007Z,23.40
2022-08-30T22:50:17.289Z,23.40
2022-08-30T22:52:45.595Z,23.40
2022-08-30T22:55:13.665Z,23.40
2022-08-30T22:57:42.162Z,23.40
2022-08-30T23:00:16.162Z,23.40
2022-08-30T23:02:50.823Z,23.40
2022-08-30T23:05:20.005Z,23.30
2022-08-30T23:07:48.375Z,23.40
2022-08-30T23:10:16.609Z,23.30
2022-08-30T23:12:44.953Z,23.30
2022-08-30T23:15:16.700Z,23.30
2022-08-30T23:17:44.604Z,23.30
2022-08-30T23:20:13.466Z,23.30
2022-08-30T23:22:41.607Z,23.30
2022-08-30T23:25:27.994Z,23.30
2022-08-30T23:28:20.809Z,23.30
2022-08-30T23:31:08.131Z,23.20
2022-08-30T23:33:53.965Z,23.20
2022-08-30T23:36:39.611Z,23.20
2022-08-30T23:39:25.215Z,23.20
2022-08-30T23:42:11.360Z,23.20
2022-08-30T23:44:57.068Z,23.20
2022-08-30T23:47:44.093Z,23.20
2022-08-30T23:50:29.639Z,23.10
2022-08-30T23:53:15.157Z,23.10
2022-08-30T23:56:00.619Z,23.10
2022-08-30T23:58:46.221Z,23.10
